Time;durP1;ratioP1;P1;durP2;ratioP2;P2;SDS_P1;SDS_P2;PMS_P1;PMS_P2;Temp;Humidity;BMP_temperature;BMP_pressure;BME280_temperature;BME280_humidity;BME280_pressure;Samples;Min_cycle;Max_cycle;Signal;HPM_P1;HPM_P2
2022/03/08 00:00:31;;;;;;;5.30;3.40;;;-2.40;99.90;;;;;;5085157;27;20577;-59
2022/03/08 00:33:51;;;;;;;7.05;4.45;;;-2.50;99.90;;;;;;5192391;27;20502;-59
2022/03/08 00:36:32;;;;;;;4.70;4.30;;;-2.50;99.90;;;;;;5105388;27;20564;-59
2022/03/08 00:39:11;;;;;;;4.47;4.07;;;-2.50;99.90;;;;;;5083281;27;20547;-59
2022/03/08 00:41:51;;;;;;;4.80;4.30;;;-2.50;99.90;;;;;;5103873;27;20533;-59
2022/03/08 00:44:31;;;;;;;4.75;4.35;;;-2.50;99.90;;;;;;5084351;27;20555;-59
2022/03/08 00:47:12;;;;;;;5.32;4.30;;;-2.50;99.90;;;;;;5104539;27;20665;-59
2022/03/08 00:49:50;;;;;;;4.35;3.95;;;-2.60;99.90;;;;;;5145900;27;20545;-59
2022/03/08 00:52:30;;;;;;;4.72;4.32;;;-2.60;99.90;;;;;;5084924;27;20843;-59
2022/03/08 00:55:13;;;;;;;6.70;4.75;;;-2.70;99.90;;;;;;5145457;27;20543;-59
2022/03/08 00:57:55;;;;;;;3.65;3.40;;;-2.90;99.90;;;;;;5083659;27;20549;-59
2022/03/08 01:00:36;;;;;;;5.03;4.53;;;-3.00;99.90;;;;;;5084448;28;20663;-59
2022/03/08 01:03:16;;;;;;;4.15;3.75;;;-3.20;99.90;;;;;;5105158;27;21023;-59
2022/03/08 01:05:56;;;;;;;4.50;4.10;;;-3.30;99.90;;;;;;5146283;27;20693;-59
2022/03/08 01:08:36;;;;;;;4.10;3.80;;;-3.30;99.90;;;;;;5104400;27;20873;-59
2022/03/08 01:11:15;;;;;;;4.55;4.15;;;-3.40;99.90;;;;;;5084686;27;20545;-59
2022/03/08 01:13:57;;;;;;;5.03;4.50;;;-3.40;99.90;;;;;;5084375;28;21129;-59
2022/03/08 01:16:37;;;;;;;4.18;3.88;;;-3.40;99.90;;;;;;5084976;28;20547;-59
2022/03/08 01:19:17;;;;;;;3.90;3.58;;;-3.40;99.90;;;;;;5083594;27;20557;-59
2022/03/08 01:21:56;;;;;;;4.18;3.78;;;-3.30;99.90;;;;;;5105555;27;20673;-59
2022/03/08 01:24:36;;;;;;;4.57;4.18;;;-3.20;99.90;;;;;;5084065;28;21220;-59
2022/03/08 01:27:17;;;;;;;5.00;4.50;;;-3.20;99.90;;;;;;5104373;27;20650;-59
2022/03/08 01:29:56;;;;;;;4.47;4.10;;;-3.10;99.90;;;;;;5083995;27;20561;-59
2022/03/08 01:32:36;;;;;;;4.05;3.75;;;-3.10;99.90;;;;;;5084625;28;20671;-59
2022/03/08 01:35:17;;;;;;;4.88;4.25;;;-3.20;99.90;;;;;;5084186;28;20723;-59
2022/03/08 01:37:55;;;;;;;4.30;4.00;;;-3.30;99.90;;;;;;5145032;27;21051;-59
2022/03/08 01:40:35;;;;;;;4.38;3.97;;;-3.50;99.90;;;;;;5082670;28;20667;-59
2022/03/08 01:43:15;;;;;;;4.18;3.88;;;-3.70;99.90;;;;;;5084741;27;20567;-59
2022/03/08 01:45:55;;;;;;;3.95;3.65;;;-3.90;99.90;;;;;;5084728;27;20544;-59
2022/03/08 01:48:35;;;;;;;7.40;4.40;;;-4.20;99.90;;;;;;5145252;27;20560;-59
2022/03/08 01:51:16;;;;;;;4.10;3.70;;;-4.40;99.90;;;;;;5084187;28;21036;-59
2022/03/08 01:53:56;;;;;;;4.30;4.00;;;-4.60;99.90;;;;;;5084195;28;20543;-59
2022/03/08 01:56:37;;;;;;;5.63;4.13;;;-4.90;99.90;;;;;;5084722;27;20548;-59
2022/03/08 01:59:16;;;;;;;4.18;3.80;;;-5.10;99.90;;;;;;5083634;28;20715;-59
2022/03/08 02:01:55;;;;;;;4.15;3.78;;;-5.20;99.90;;;;;;5084913;28;20656;-59
2022/03/08 02:04:35;;;;;;;4.28;3.78;;;-5.30;99.90;;;;;;5084684;27;20547;-60
2022/03/08 02:07:15;;;;;;;4.35;3.92;;;-5.40;99.90;;;;;;5084406;28;20551;-59
2022/03/08 02:09:55;;;;;;;4.57;4.18;;;-5.50;99.90;;;;;;5104591;27;20550;-59
2022/03/08 02:12:35;;;;;;;3.90;3.60;;;-5.60;99.90;;;;;;5085031;28;20565;-59
2022/03/08 02:15:17;;;;;;;4.55;4.13;;;-5.60;99.90;;;;;;5104985;27;20915;-60
2022/03/08 02:17:58;;;;;;;4.05;3.78;;;-5.70;99.90;;;;;;5084293;27;20560;-60
2022/03/08 02:20:38;;;;;;;4.55;4.10;;;-5.80;99.90;;;;;;5085193;28;20664;-59
2022/03/08 02:23:17;;;;;;;4.47;4.18;;;-5.80;99.90;;;;;;5105168;27;20537;-59
2022/03/08 02:25:57;;;;;;;4.10;3.80;;;-5.80;99.90;;;;;;5085359;27;20556;-59
2022/03/08 02:28:37;;;;;;;4.00;3.70;;;-5.90;99.90;;;;;;5084012;28;20675;-60
2022/03/08 02:31:17;;;;;;;4.47;4.07;;;-6.00;99.90;;;;;;5084764;28;21184;-60
2022/03/08 02:33:57;;;;;;;3.30;3.10;;;-6.00;99.90;;;;;;5078080;28;20687;-59
2022/03/08 02:36:36;;;;;;;4.00;3.75;;;-6.10;99.90;;;;;;5084218;27;20867;-60
2022/03/08 02:39:16;;;;;;;3.83;3.53;;;-6.20;99.90;;;;;;5103440;27;20666;-59
2022/03/08 02:41:56;;;;;;;3.95;3.65;;;-6.30;99.90;;;;;;5083153;28;20915;-59
2022/03/08 02:44:36;;;;;;;4.13;3.83;;;-6.30;99.90;;;;;;5104826;27;21041;-59
2022/03/08 02:47:16;;;;;;;4.25;3.85;;;-6.30;99.90;;;;;;5084883;27;20544;-60
2022/03/08 02:49:55;;;;;;;3.95;3.55;;;-6.30;99.90;;;;;;5084069;27;20540;-59
2022/03/08 02:52:36;;;;;;;4.30;3.75;;;-6.40;99.90;;;;;;5146469;27;20657;-59
2022/03/08 02:55:15;;;;;;;4.63;4.22;;;-6.40;99.90;;;;;;5084092;28;20687;-60
2022/03/08 02:57:56;;;;;;;3.80;3.50;;;-6.40;99.90;;;;;;5084520;27;20588;-60
2022/03/08 03:00:36;;;;;;;4.38;3.83;;;-6.40;99.90;;;;;;5104896;27;20904;-59
2022/03/08 03:03:18;;;;;;;4.43;3.65;;;-6.50;99.90;;;;;;5084597;27;21096;-60
2022/03/08 03:05:58;;;;;;;4.60;4.20;;;-6.50;99.90;;;;;;5104891;27;20554;-59
2022/03/08 03:08:37;;;;;;;3.67;3.38;;;-6.60;99.90;;;;;;5083717;28;20659;-59
2022/03/08 03:11:17;;;;;;;4.28;3.88;;;-6.60;99.90;;;;;;5146020;27;20669;-59
2022/03/08 03:13:58;;;;;;;4.13;3.78;;;-6.60;99.90;;;;;;5125152;27;20552;-60
2022/03/08 03:16:37;;;;;;;4.45;3.50;;;-6.60;99.90;;;;;;5084070;27;20909;-60
2022/03/08 03:19:17;;;;;;;4.93;4.47;;;-6.60;99.90;;;;;;5103813;27;20545;-59
2022/03/08 03:21:57;;;;;;;3.78;3.47;;;-6.70;99.90;;;;;;5083931;27;20548;-59
2022/03/08 03:24:36;;;;;;;5.75;3.63;;;-6.70;99.90;;;;;;5084392;27;20556;-59
2022/03/08 03:27:16;;;;;;;5.13;3.95;;;-6.80;99.90;;;;;;5084197;28;20695;-59
2022/03/08 03:29:56;;;;;;;3.85;3.38;;;-6.90;99.90;;;;;;5145425;27;21185;-59
2022/03/08 03:32:36;;;;;;;4.53;3.97;;;-7.00;99.90;;;;;;5085700;28;20838;-59
2022/03/08 03:35:16;;;;;;;5.28;4.78;;;-7.10;99.90;;;;;;5084311;27;20581;-59
2022/03/08 03:37:55;;;;;;;4.45;4.15;;;-7.20;99.90;;;;;;5104441;27;20611;-60
2022/03/08 03:40:35;;;;;;;3.78;3.45;;;-7.20;99.90;;;;;;5144007;27;20955;-60
2022/03/08 03:43:15;;;;;;;4.15;3.85;;;-7.20;99.90;;;;;;5146912;27;21193;-59
2022/03/08 03:45:55;;;;;;;5.35;4.85;;;-7.20;99.90;;;;;;5104955;27;20550;-59
2022/03/08 03:48:35;;;;;;;4.97;4.57;;;-7.20;99.90;;;;;;5104233;27;20677;-59
2022/03/08 03:51:15;;;;;;;6.32;4.70;;;-7.20;99.90;;;;;;5104195;27;20677;-60
2022/03/08 03:53:55;;;;;;;4.95;4.43;;;-7.20;99.90;;;;;;5104909;27;20869;-59
2022/03/08 03:56:35;;;;;;;4.68;4.28;;;-7.30;99.90;;;;;;5146234;27;20538;-60
2022/03/08 03:59:14;;;;;;;4.00;3.53;;;-7.30;99.90;;;;;;5103746;27;21062;-59
2022/03/08 04:01:54;;;;;;;7.40;5.55;;;-7.40;99.90;;;;;;5125703;27;20539;-59
2022/03/08 04:04:34;;;;;;;7.10;5.65;;;-7.40;99.90;;;;;;5084203;28;20551;-60
2022/03/08 04:07:14;;;;;;;5.35;4.25;;;-7.30;99.90;;;;;;5103846;27;20673;-59
2022/03/08 04:09:54;;;;;;;5.55;4.38;;;-7.10;99.90;;;;;;5084328;28;21341;-59
2022/03/08 04:12:34;;;;;;;3.85;3.55;;;-6.90;99.90;;;;;;5084365;27;20976;-60
2022/03/08 04:15:13;;;;;;;5.10;3.40;;;-7.00;99.90;;;;;;5084339;27;20883;-60
2022/03/08 04:17:53;;;;;;;5.80;3.05;;;-7.10;99.90;;;;;;5084135;27;20553;-59
2022/03/08 04:20:34;;;;;;;4.10;3.17;;;-7.20;99.90;;;;;;5145731;27;21079;-59
2022/03/08 04:23:13;;;;;;;3.22;2.97;;;-7.30;99.90;;;;;;5105189;27;20599;-59
2022/03/08 04:25:52;;;;;;;3.30;3.00;;;-7.40;99.90;;;;;;5124125;27;20675;-59
2022/03/08 04:28:32;;;;;;;3.35;3.08;;;-7.50;99.90;;;;;;5103384;27;21110;-59
2022/03/08 04:31:12;;;;;;;3.67;3.38;;;-7.60;99.90;;;;;;5084275;27;20553;-59
2022/03/08 04:33:52;;;;;;;4.00;3.55;;;-7.60;99.90;;;;;;5084033;27;20660;-59
2022/03/08 04:36:32;;;;;;;3.50;3.20;;;-7.70;99.90;;;;;;5104255;27;20939;-59
2022/03/08 04:39:12;;;;;;;3.88;3.47;;;-7.70;99.90;;;;;;5102843;27;20537;-59
2022/03/08 04:41:51;;;;;;;4.43;3.47;;;-7.60;99.90;;;;;;5082321;27;20543;-59
2022/03/08 04:44:31;;;;;;;4.32;4.03;;;-7.70;99.90;;;;;;5084337;27;20649;-59
2022/03/08 04:47:11;;;;;;;4.72;4.32;;;-7.70;99.90;;;;;;5104227;27;20542;-60
2022/03/08 04:49:51;;;;;;;4.78;4.38;;;-7.80;99.90;;;;;;5083895;28;21506;-59
2022/03/08 04:52:31;;;;;;;4.68;4.18;;;-7.70;99.90;;;;;;5104790;27;20551;-59
2022/03/08 04:55:11;;;;;;;5.15;3.90;;;-7.70;99.90;;;;;;5146245;27;20662;-60
2022/03/08 04:57:50;;;;;;;7.78;4.15;;;-7.70;99.90;;;;;;5084125;28;20543;-59
2022/03/08 05:00:30;;;;;;;4.72;4.18;;;-7.70;99.90;;;;;;5084447;27;20545;-59
2022/03/08 05:03:10;;;;;;;4.60;4.20;;;-7.70;99.90;;;;;;5084609;27;20532;-60
2022/03/08 05:05:50;;;;;;;3.92;3.63;;;-7.80;99.90;;;;;;5085083;27;20920;-58
2022/03/08 05:08:30;;;;;;;4.20;3.78;;;-7.80;99.90;;;;;;5083793;28;20672;-60
2022/03/08 05:11:09;;;;;;;4.35;3.95;;;-7.90;99.90;;;;;;5105001;27;20526;-59
2022/03/08 05:13:49;;;;;;;4.10;3.80;;;-8.00;99.90;;;;;;5084238;28;20664;-59
2022/03/08 05:16:29;;;;;;;6.50;4.68;;;-8.00;99.90;;;;;;5084786;28;21017;-59
2022/03/08 05:19:10;;;;;;;4.53;3.97;;;-7.90;99.90;;;;;;5083424;27;21091;-59
2022/03/08 05:21:49;;;;;;;5.35;4.40;;;-7.90;99.90;;;;;;5105194;27;20665;-60
2022/03/08 05:24:29;;;;;;;4.97;4.60;;;-7.90;99.90;;;;;;5084168;27;20551;-60
2022/03/08 05:27:09;;;;;;;4.35;3.95;;;-7.90;99.90;;;;;;5084097;28;20652;-60
2022/03/08 05:29:48;;;;;;;4.60;4.20;;;-7.90;99.90;;;;;;5084294;28;21032;-59
2022/03/08 05:32:28;;;;;;;5.03;4.63;;;-7.90;99.90;;;;;;5126164;27;20615;-60
2022/03/08 05:35:09;;;;;;;5.95;4.45;;;-8.00;99.90;;;;;;5084312;27;20548;-59
2022/03/08 05:37:48;;;;;;;4.80;4.40;;;-8.00;99.90;;;;;;5125258;27;20555;-59
2022/03/08 05:40:28;;;;;;;4.47;4.07;;;-8.00;99.90;;;;;;5104892;27;20564;-59
2022/03/08 05:43:07;;;;;;;5.22;4.72;;;-7.90;99.90;;;;;;5084645;28;21029;-60
2022/03/08 05:45:47;;;;;;;4.88;4.38;;;-7.90;99.90;;;;;;5084220;27;20989;-59
2022/03/08 05:48:27;;;;;;;5.15;4.63;;;-7.90;99.90;;;;;;5083780;28;21285;-59
2022/03/08 05:51:07;;;;;;;5.65;4.97;;;-7.90;99.90;;;;;;5145239;27;20595;-59
2022/03/08 05:53:47;;;;;;;5.50;4.43;;;-7.90;99.90;;;;;;5104768;27;20534;-59
2022/03/08 05:56:26;;;;;;;4.60;3.75;;;-7.90;99.90;;;;;;5105073;27;20583;-60
2022/03/08 05:59:06;;;;;;;3.88;3.58;;;-7.80;99.90;;;;;;5082722;28;20671;-60
2022/03/08 06:01:46;;;;;;;4.00;3.70;;;-7.80;99.90;;;;;;5124513;27;20532;-59
2022/03/08 06:04:26;;;;;;;4.38;4.07;;;-7.80;99.90;;;;;;5084484;28;20679;-59
2022/03/08 06:07:07;;;;;;;4.88;4.32;;;-7.80;99.90;;;;;;5084026;27;20902;-59
2022/03/08 06:09:46;;;;;;;5.35;3.90;;;-7.80;99.90;;;;;;5084093;27;20544;-59
2022/03/08 06:12:25;;;;;;;4.20;3.90;;;-7.70;99.90;;;;;;5146448;27;20645;-59
2022/03/08 06:15:06;;;;;;;5.97;3.88;;;-7.60;99.90;;;;;;5084031;28;20551;-59
2022/03/08 06:17:45;;;;;;;7.90;4.65;;;-7.50;99.90;;;;;;5145284;27;20653;-59
2022/03/08 06:20:25;;;;;;;5.55;4.18;;;-7.40;99.90;;;;;;5104250;27;20673;-59
2022/03/08 06:23:05;;;;;;;4.88;4.47;;;-7.30;99.90;;;;;;5084814;28;20548;-59
2022/03/08 06:25:45;;;;;;;5.50;5.00;;;-7.20;99.90;;;;;;5084443;28;20688;-59
2022/03/08 06:28:24;;;;;;;8.57;4.90;;;-7.10;99.90;;;;;;5083171;28;20660;-59
2022/03/08 06:31:04;;;;;;;6.07;4.95;;;-6.90;99.90;;;;;;5084380;28;20660;-59
2022/03/08 06:33:44;;;;;;;7.70;5.80;;;-6.80;99.90;;;;;;5084469;28;20656;-59
2022/03/08 06:36:24;;;;;;;7.15;6.55;;;-6.60;99.90;;;;;;5085285;27;20562;-59
2022/03/08 06:39:04;;;;;;;7.80;7.20;;;-6.50;99.90;;;;;;5144818;27;20546;-59
2022/03/08 06:41:44;;;;;;;8.57;7.88;;;-6.30;99.90;;;;;;5124075;27;20540;-59
2022/03/08 06:44:23;;;;;;;8.75;7.85;;;-6.20;99.90;;;;;;5082442;28;20676;-59
2022/03/08 06:47:03;;;;;;;8.80;8.15;;;-6.10;99.90;;;;;;5103655;27;20681;-60
2022/03/08 06:49:44;;;;;;;8.98;8.13;;;-5.90;99.90;;;;;;5124584;27;20548;-59
2022/03/08 06:52:23;;;;;;;9.52;8.73;;;-5.80;99.90;;;;;;5084083;27;21076;-59
2022/03/08 06:55:04;;;;;;;8.68;7.20;;;-5.60;99.90;;;;;;5124870;27;20559;-59
2022/03/08 06:57:43;;;;;;;5.85;5.35;;;-5.50;99.90;;;;;;5083183;28;20663;-59
2022/03/08 07:00:22;;;;;;;5.78;4.75;;;-5.30;99.90;;;;;;5102826;27;20864;-59
2022/03/08 07:03:02;;;;;;;4.40;4.00;;;-5.10;99.90;;;;;;5144572;27;21186;-58
2022/03/08 07:05:42;;;;;;;5.80;5.30;;;-5.00;99.90;;;;;;5123577;27;20633;-59
2022/03/08 07:08:22;;;;;;;5.20;4.70;;;-4.80;99.90;;;;;;5082658;28;20664;-59
2022/03/08 07:11:02;;;;;;;7.38;5.40;;;-4.70;99.90;;;;;;5083310;28;20663;-59
2022/03/08 07:13:41;;;;;;;6.78;5.60;;;-4.60;99.90;;;;;;5083892;28;20663;-59
2022/03/08 07:16:21;;;;;;;6.75;5.43;;;-4.40;99.90;;;;;;5084749;28;21034;-59
2022/03/08 07:19:01;;;;;;;7.82;5.45;;;-4.30;99.90;;;;;;5082860;27;20899;-59
2022/03/08 07:21:41;;;;;;;7.72;5.78;;;-4.20;99.90;;;;;;5126032;27;20536;-59
2022/03/08 07:24:21;;;;;;;6.22;5.63;;;-4.10;99.90;;;;;;5128490;27;20728;-59
2022/03/08 07:27:01;;;;;;;7.15;6.55;;;-3.90;99.90;;;;;;5081489;28;20676;-59
2022/03/08 07:29:40;;;;;;;6.93;6.32;;;-3.80;99.90;;;;;;5082148;28;21020;-59
2022/03/08 07:32:20;;;;;;;7.22;6.63;;;-3.70;99.90;;;;;;5145061;27;20542;-59
2022/03/08 07:35:00;;;;;;;5.20;4.80;;;-3.60;99.90;;;;;;5084469;28;20691;-59
2022/03/08 07:37:40;;;;;;;6.47;5.97;;;-3.50;99.90;;;;;;5104838;27;20530;-59
2022/03/08 07:40:20;;;;;;;7.25;6.30;;;-3.40;99.90;;;;;;5083412;28;20675;-59
2022/03/08 07:43:01;;;;;;;6.80;6.28;;;-3.30;99.90;;;;;;5083369;28;20548;-59
2022/03/08 07:45:41;;;;;;;6.68;6.07;;;-3.20;99.90;;;;;;5084303;27;20539;-59
2022/03/08 07:48:21;;;;;;;6.05;5.50;;;-3.10;99.90;;;;;;5104005;27;20530;-59
2022/03/08 07:51:01;;;;;;;6.07;5.63;;;-2.90;99.90;;;;;;5082238;28;21048;-59
2022/03/08 07:53:40;;;;;;;6.13;5.45;;;-2.90;99.90;;;;;;5096503;27;21277;-59
2022/03/08 07:56:20;;;;;;;6.18;5.68;;;-2.70;99.90;;;;;;5124863;27;20548;-58
2022/03/08 07:59:00;;;;;;;7.60;5.60;;;-2.70;99.90;;;;;;5082607;28;20689;-59
2022/03/08 08:01:40;;;;;;;7.07;5.78;;;-2.50;99.90;;;;;;5083380;28;20671;-59
2022/03/08 08:04:20;;;;;;;9.07;5.70;;;-2.40;99.90;;;;;;5099768;27;20548;-58
2022/03/08 08:07:00;;;;;;;6.93;6.32;;;-2.30;99.90;;;;;;5104083;27;20650;-58
2022/03/08 08:09:39;;;;;;;7.82;6.85;;;-2.20;99.90;;;;;;5145624;27;20615;-56
2022/03/08 08:12:19;;;;;;;6.03;5.40;;;-2.10;99.90;;;;;;5104619;27;20537;-58
2022/03/08 08:14:59;;;;;;;7.35;6.60;;;-2.00;99.90;;;;;;5083988;27;20551;-58
2022/03/08 08:17:39;;;;;;;6.13;5.63;;;-1.90;99.90;;;;;;5104227;27;20566;-58
2022/03/08 08:20:21;;;;;;;7.70;6.22;;;-1.80;99.90;;;;;;5083738;27;20919;-58
2022/03/08 08:23:00;;;;;;;8.02;6.60;;;-1.70;99.90;;;;;;5136147;27;20684;-58
2022/03/08 08:25:40;;;;;;;7.57;6.63;;;-1.60;99.90;;;;;;5093184;27;20547;-58
2022/03/08 08:28:20;;;;;;;8.02;7.22;;;-1.40;99.90;;;;;;5103290;27;20662;-58
2022/03/08 08:31:00;;;;;;;7.80;6.85;;;-1.30;99.90;;;;;;5078719;28;20955;-58
2022/03/08 08:33:39;;;;;;;7.85;7.15;;;-1.10;99.90;;;;;;5082374;28;20695;-58
2022/03/08 08:36:19;;;;;;;7.80;6.47;;;-1.00;99.90;;;;;;5144201;27;20546;-58
2022/03/08 08:38:59;;;;;;;7.40;6.75;;;-0.90;99.90;;;;;;5134888;27;20590;-58
2022/03/08 08:41:39;;;;;;;7.63;6.95;;;-0.80;99.90;;;;;;5082406;27;21068;-58
2022/03/08 08:44:20;;;;;;;8.25;7.57;;;-0.60;99.90;;;;;;5073843;27;20590;-58
2022/03/08 08:46:59;;;;;;;7.22;6.43;;;-0.50;99.90;;;;;;5102908;27;20546;-58
2022/03/08 08:49:39;;;;;;;6.50;5.68;;;-0.30;99.90;;;;;;5082279;27;20683;-58
2022/03/08 08:52:18;;;;;;;5.38;4.97;;;-0.10;99.90;;;;;;5082285;28;20547;-58
2022/03/08 08:54:58;;;;;;;5.55;4.75;;;0.00;99.90;;;;;;5088747;27;21033;-58
2022/03/08 08:57:38;;;;;;;6.75;4.70;;;0.30;99.90;;;;;;5124065;27;20540;-58
2022/03/08 09:00:18;;;;;;;5.90;4.65;;;0.50;99.90;;;;;;5079966;27;20545;-58
2022/03/08 09:02:58;;;;;;;4.13;3.50;;;0.70;99.90;;;;;;5057144;27;20592;-58
2022/03/08 09:05:37;;;;;;;4.53;4.13;;;1.00;99.90;;;;;;5086313;27;21078;-58
2022/03/08 09:08:23;;;;;;;4.45;3.67;;;1.30;99.90;;;;;;5101994;27;20546;-58
2022/03/08 09:11:08;;;;;;;5.95;3.50;;;1.70;99.90;;;;;;5123661;27;20922;-58
2022/03/08 09:13:48;;;;;;;5.97;3.33;;;2.00;99.90;;;;;;5144090;27;20530;-58
2022/03/08 09:16:28;;;;;;;3.78;3.47;;;2.30;99.90;;;;;;5082379;27;20579;-58
2022/03/08 09:19:08;;;;;;;5.15;3.65;;;2.60;99.90;;;;;;5102210;27;20527;-58
2022/03/08 09:21:47;;;;;;;3.70;2.88;;;2.70;99.90;;;;;;5135169;27;20679;-58
2022/03/08 09:24:27;;;;;;;3.38;3.08;;;2.80;99.90;;;;;;5096646;27;21050;-58
2022/03/08 09:27:07;;;;;;;2.95;2.65;;;3.00;99.90;;;;;;5120696;27;20540;-58
2022/03/08 09:29:47;;;;;;;3.40;2.60;;;3.20;99.90;;;;;;5103332;27;20534;-58
2022/03/08 09:32:27;;;;;;;3.17;2.92;;;3.30;99.90;;;;;;5078002;27;20599;-58
2022/03/08 09:35:08;;;;;;;4.53;2.90;;;3.20;99.90;;;;;;5103271;27;20697;-58
2022/03/08 09:37:46;;;;;;;6.25;5.22;;;3.30;99.90;;;;;;5081342;27;20539;-58
2022/03/08 09:40:27;;;;;;;4.82;4.35;;;3.50;99.90;;;;;;5083435;27;20896;-58
2022/03/08 09:43:06;;;;;;;3.70;3.40;;;3.60;99.90;;;;;;5084093;27;20535;-58
2022/03/08 09:45:46;;;;;;;2.88;2.60;;;3.60;99.90;;;;;;5083930;28;20547;-58
2022/03/08 09:48:26;;;;;;;4.53;2.97;;;3.60;99.90;;;;;;5143255;27;20538;-59
2022/03/08 09:51:06;;;;;;;2.60;2.40;;;3.60;99.90;;;;;;5145041;27;21139;-58
2022/03/08 09:53:46;;;;;;;2.28;2.13;;;3.70;99.90;;;;;;5063689;28;21238;-58
2022/03/08 09:56:26;;;;;;;2.00;1.90;;;3.80;99.90;;;;;;5104533;27;20541;-58
2022/03/08 09:59:05;;;;;;;3.05;2.75;;;3.90;99.50;;;;;;5082285;27;21028;-58
2022/03/08 10:01:45;;;;;;;2.55;2.10;;;4.00;99.90;;;;;;5104220;27;20550;-58
2022/03/08 10:04:25;;;;;;;2.03;1.92;;;3.90;98.60;;;;;;5083576;28;20711;-58
2022/03/08 10:07:10;;;;;;;2.10;2.00;;;4.00;99.90;;;;;;5103663;27;20545;-58
2022/03/08 10:09:57;;;;;;;2.83;1.67;;;4.10;97.30;;;;;;5124482;27;20840;-58
2022/03/08 10:12:37;;;;;;;2.25;1.88;;;4.10;91.60;;;;;;5145657;27;20653;-58
2022/03/08 10:15:20;;;;;;;3.72;2.50;;;4.20;93.20;;;;;;5082932;27;20539;-58
2022/03/08 10:18:00;;;;;;;2.47;1.70;;;4.20;93.00;;;;;;5123574;27;20544;-58
2022/03/08 10:20:40;;;;;;;2.35;2.10;;;4.20;91.60;;;;;;5103892;27;20573;-59
2022/03/08 10:23:20;;;;;;;3.38;2.00;;;4.20;92.70;;;;;;5080127;27;20586;-58
2022/03/08 10:26:05;;;;;;;2.22;1.90;;;4.30;90.40;;;;;;5124598;27;20695;-58
2022/03/08 10:28:49;;;;;;;2.20;2.00;;;4.30;90.70;;;;;;5079464;27;20600;-58
2022/03/08 10:31:29;;;;;;;3.65;2.67;;;4.40;92.00;;;;;;5082037;28;21130;-58
2022/03/08 10:34:15;;;;;;;2.53;1.92;;;4.40;91.00;;;;;;5099661;27;20551;-58
2022/03/08 10:37:09;;;;;;;2.33;2.08;;;4.50;90.70;;;;;;5164762;27;20675;-58
2022/03/08 10:39:53;;;;;;;1.83;1.70;;;4.50;90.10;;;;;;5082978;28;20668;-58
2022/03/08 10:42:33;;;;;;;2.22;2.05;;;4.50;88.60;;;;;;5104432;27;20669;-58
2022/03/08 10:45:15;;;;;;;2.28;2.08;;;4.50;91.20;;;;;;5103776;27;20681;-58
2022/03/08 10:47:55;;;;;;;2.65;2.45;;;4.70;92.00;;;;;;5076857;27;20591;-58
2022/03/08 10:50:36;;;;;;;2.33;2.13;;;4.80;89.20;;;;;;5103727;27;20677;-59
2022/03/08 10:53:16;;;;;;;2.47;2.28;;;4.90;91.70;;;;;;5092652;27;20551;-58
2022/03/08 10:55:56;;;;;;;2.53;2.33;;;4.90;91.40;;;;;;5101606;27;20590;-58
2022/03/08 10:58:49;;;;;;;2.55;2.08;;;4.90;90.80;;;;;;5079780;28;20664;-58
2022/03/08 11:01:28;;;;;;;2.90;2.47;;;4.90;92.10;;;;;;5081993;27;20580;-58
2022/03/08 11:04:19;;;;;;;2.30;2.10;;;4.90;89.50;;;;;;5099789;27;21317;-58
2022/03/08 11:06:59;;;;;;;2.35;2.15;;;4.80;87.00;;;;;;5104118;27;20689;-58
2022/03/08 11:09:40;;;;;;;3.22;2.13;;;4.80;90.40;;;;;;5101597;27;20542;-58
2022/03/08 11:12:19;;;;;;;2.08;1.92;;;4.90;90.60;;;;;;5104551;27;20538;-58
2022/03/08 11:14:59;;;;;;;2.15;1.92;;;4.90;87.50;;;;;;5083104;27;20591;-58
2022/03/08 11:17:40;;;;;;;2.00;1.90;;;4.90;84.40;;;;;;5098247;27;20725;-58
2022/03/08 11:20:22;;;;;;;2.40;2.20;;;5.10;86.60;;;;;;5123901;27;20549;-58
2022/03/08 11:23:02;;;;;;;2.75;2.00;;;5.20;82.80;;;;;;5150651;27;20550;-58
2022/03/08 11:25:44;;;;;;;2.38;2.10;;;5.30;82.70;;;;;;5087960;27;21072;-58
2022/03/08 11:28:24;;;;;;;2.60;1.98;;;5.30;77.50;;;;;;5102712;27;20705;-58
2022/03/08 11:31:04;;;;;;;2.50;2.10;;;5.30;79.40;;;;;;5080518;28;21220;-58
2022/03/08 11:33:52;;;;;;;2.20;2.00;;;5.30;80.30;;;;;;5099908;27;20713;-58
2022/03/08 11:36:36;;;;;;;2.83;1.90;;;5.40;78.30;;;;;;5081559;27;20602;-58
2022/03/08 11:39:22;;;;;;;2.58;2.22;;;5.40;75.30;;;;;;5081156;28;20668;-58
2022/03/08 11:42:29;;;;;;;2.00;1.80;;;5.30;72.20;;;;;;5084132;28;21005;-58
2022/03/08 11:45:11;;;;;;;2.00;1.90;;;5.40;67.60;;;;;;5103785;27;20681;-58
2022/03/08 11:47:56;;;;;;;2.08;1.88;;;5.40;71.60;;;;;;5101311;27;20673;-58
2022/03/08 11:50:38;;;;;;;1.95;1.85;;;5.40;61.90;;;;;;5083342;27;20567;-58
2022/03/08 11:53:19;;;;;;;2.25;2.05;;;5.40;63.70;;;;;;5104323;27;20661;-58
2022/03/08 11:55:58;;;;;;;6.22;2.20;;;5.50;66.40;;;;;;5103764;27;21082;-58
2022/03/08 11:58:47;;;;;;;2.33;2.05;;;5.60;65.60;;;;;;5081387;28;20688;-58
2022/03/08 12:01:28;;;;;;;2.10;1.90;;;5.50;61.50;;;;;;5084358;28;20555;-58
2022/03/08 12:04:11;;;;;;;1.55;1.45;;;5.50;60.60;;;;;;5084241;28;21039;-58
2022/03/08 12:06:53;;;;;;;2.33;2.13;;;5.60;60.30;;;;;;5104318;27;20541;-59
2022/03/08 12:09:34;;;;;;;1.80;1.70;;;5.70;61.50;;;;;;5103994;27;20665;-58
2022/03/08 12:12:20;;;;;;;2.80;1.75;;;5.80;55.90;;;;;;5146054;27;20945;-58
2022/03/08 12:15:05;;;;;;;2.10;1.90;;;5.80;57.00;;;;;;5083139;27;20547;-58
2022/03/08 12:18:18;;;;;;;3.20;2.97;;;5.70;58.40;;;;;;5080903;28;20676;-58
2022/03/08 12:21:32;;;;;;;1.45;1.30;;;5.90;59.10;;;;;;5087150;27;20591;-59
2022/03/08 12:24:18;;;;;;;1.92;1.83;;;5.90;53.80;;;;;;5079483;28;21208;-58
2022/03/08 12:27:00;;;;;;;2.20;2.00;;;5.80;52.60;;;;;;5084177;27;20564;-58
2022/03/08 12:29:54;;;;;;;2.47;1.98;;;5.90;53.70;;;;;;5104408;27;20541;-57
2022/03/08 12:32:39;;;;;;;3.95;3.30;;;5.80;55.10;;;;;;5107123;22;20596;-59
2022/03/08 12:35:23;;;;;;;2.05;1.90;;;5.80;56.30;;;;;;5144622;27;20554;-59
2022/03/08 12:38:03;;;;;;;2.40;2.20;;;5.80;59.70;;;;;;5103794;27;21070;-59
2022/03/08 12:40:49;;;;;;;5.07;2.15;;;5.80;57.50;;;;;;5144814;27;20717;-59
2022/03/08 12:43:28;;;;;;;2.55;2.35;;;5.70;58.10;;;;;;5095979;27;21562;-58
2022/03/08 12:46:08;;;;;;;2.60;2.40;;;5.90;59.20;;;;;;5103862;27;20542;-59
2022/03/08 12:48:48;;;;;;;2.78;2.58;;;5.90;58.30;;;;;;5077116;28;20867;-60
2022/03/08 12:51:28;;;;;;;2.65;2.45;;;5.90;58.20;;;;;;5144399;27;20673;-60
2022/03/08 12:54:10;;;;;;;2.60;2.40;;;5.90;57.80;;;;;;5082474;27;20592;-59
2022/03/08 12:56:49;;;;;;;2.55;2.35;;;5.90;57.50;;;;;;5144755;27;20538;-59
2022/03/08 12:59:29;;;;;;;2.45;2.25;;;5.90;56.50;;;;;;5102829;27;20553;-59
2022/03/08 13:02:10;;;;;;;2.70;2.50;;;5.80;54.40;;;;;;5119184;27;20573;-58
2022/03/08 13:04:50;;;;;;;3.25;2.95;;;5.80;55.40;;;;;;5083826;27;20600;-59
2022/03/08 13:07:30;;;;;;;5.78;3.05;;;5.80;58.60;;;;;;5102811;27;20561;-59
2022/03/08 13:10:10;;;;;;;7.80;7.10;;;5.90;62.20;;;;;;5144484;27;20546;-59
2022/03/08 13:12:54;;;;;;;4.28;2.80;;;6.10;60.60;;;;;;5155870;27;21036;-59
2022/03/08 13:15:33;;;;;;;3.38;3.08;;;6.10;59.00;;;;;;5144985;27;20574;-59
2022/03/08 13:18:13;;;;;;;3.03;2.70;;;6.20;61.00;;;;;;5102276;27;21414;-59
2022/03/08 13:20:53;;;;;;;3.83;3.53;;;6.10;58.60;;;;;;5144354;27;20657;-59
2022/03/08 13:23:35;;;;;;;3.15;2.85;;;6.10;59.50;;;;;;5083712;27;20585;-59
2022/03/08 13:26:49;;;;;;;3.28;2.97;;;6.20;55.00;;;;;;5105616;27;20542;-59
2022/03/08 13:29:20;;;;;;;3.30;2.88;;;6.20;58.70;;;;;;5124137;27;21018;-59
2022/03/08 13:32:02;;;;;;;3.60;3.28;;;6.20;60.00;;;;;;5146635;27;21067;-59
2022/03/08 13:34:42;;;;;;;3.25;2.95;;;6.20;57.80;;;;;;5105225;27;20542;-59
2022/03/08 13:37:23;;;;;;;10.40;2.90;;;6.20;56.10;;;;;;5125307;27;20548;-59
2022/03/08 13:40:03;;;;;;;3.45;3.13;;;6.30;60.50;;;;;;5104753;27;20541;-59
2022/03/08 13:42:46;;;;;;;3.95;3.53;;;6.40;59.20;;;;;;5155490;27;20545;-58
2022/03/08 13:45:26;;;;;;;4.22;3.90;;;6.30;57.20;;;;;;5104403;27;20591;-59
2022/03/08 13:48:07;;;;;;;3.45;3.15;;;6.20;59.10;;;;;;5145736;27;20535;-59
2022/03/08 13:50:50;;;;;;;2.40;2.20;;;6.20;60.40;;;;;;5145683;27;20657;-59
2022/03/08 13:53:31;;;;;;;6.72;4.82;;;6.20;56.10;;;;;;5084343;28;21227;-59
2022/03/08 13:56:10;;;;;;;4.40;3.60;;;6.30;53.90;;;;;;5145205;27;20657;-59
2022/03/08 13:58:55;;;;;;;2.92;2.63;;;6.30;52.90;;;;;;5104272;27;20690;-59
2022/03/08 14:01:34;;;;;;;2.97;2.67;;;6.30;53.80;;;;;;5125742;27;20540;-60
2022/03/08 14:04:26;;;;;;;2.05;1.95;;;6.30;50.70;;;;;;5104758;27;21296;-58
2022/03/08 14:07:06;;;;;;;2.08;1.90;;;6.30;50.80;;;;;;5104279;27;20657;-58
2022/03/08 14:09:56;;;;;;;2.85;2.58;;;6.30;48.00;;;;;;5104545;27;21054;-60
2022/03/08 14:12:46;;;;;;;3.33;3.03;;;6.30;49.50;;;;;;5153831;27;20545;-60
2022/03/08 14:15:29;;;;;;;1.75;1.65;;;6.20;48.50;;;;;;5142196;27;20547;-60
2022/03/08 14:18:11;;;;;;;2.13;1.88;;;6.20;49.00;;;;;;5083274;28;20672;-59
2022/03/08 14:20:50;;;;;;;1.75;1.65;;;6.20;46.20;;;;;;5099681;27;20677;-59
2022/03/08 14:23:41;;;;;;;2.08;1.88;;;6.30;46.00;;;;;;5083869;27;20621;-58
2022/03/08 14:26:23;;;;;;;3.03;2.17;;;6.20;45.50;;;;;;5103920;27;20956;-60
2022/03/08 14:29:11;;;;;;;2.50;2.30;;;6.20;47.40;;;;;;5145115;27;20572;-59
2022/03/08 14:31:51;;;;;;;2.63;2.00;;;6.30;46.50;;;;;;5147080;27;20534;-59